Hurlburt Field
KHRT : now visible

Airfield :











YOU CAN JOIN US ON...

 
LOGIN :

Register | Disclaimer

   EN    FR    IT 

 









Legend :    VFR   Marginal VFR   IFR   Intensive IFR   Very Intensive IFR
Visi :
Ceiling :
>= 8 km
>= 3000ft
5 to 8 km
1000 to 3000 ft
1500m to 5 km
500 to 1000 ft
800 to 1500m
200 to 500 ft
< 800m
< 200 ft
Symbols :   Thunderstorms  Fog  Heavy snow  Heavy precipitations  Wind > 20 kt






- Airport Elevation : 38 ft


KHRT - Hurlburt Field

CURRENT METAR :
  • 082107Z 12011G17KT 10SM -DZ BKN026 OVC034 20/16 A3006 RMK AO2A DZB07 SLP181 $

EXPIRED METARs :
  • 082056Z 12009KT 10SM SCT027 BKN034 BKN060 OVC080 20/16 A3006 RMK AO2A SLP181 T01950157 55017 $
  • 082036Z 13014KT 10SM SCT029 OVC055 20/16 A3006 RMK AO2A SLP181 $
  • 081956Z 12009G20KT 10SM OVC029 20/15 A3006 RMK AO2A SLP181 T01970153 $
  • 081941Z 11011G17KT 10SM OVC029 19/15 A3007 RMK AO2A SLP184 $
  • 081856Z 12015G22KT 10SM BKN034 OVC042 19/15 A3009 RMK AO2A RAE1806RAB13E26 SLP191 P0000 T01900151 $
  • 081826Z 11012G18KT 10SM FEW014 BKN025 BKN033 OVC046 18/15 A3010 RMK AO2A RAE1806RAB13E26 SLP195 $

TAF TAF KHRT
Valid from the 08 at 18:00 until the 10 at 00:00 UTC


081800Z 0818/0924 12010G20KT 9000 SHRA BKN020 BKN040 OVC060 QNH3011INS
BECMG 0904/0905 10009KT 9999 NSW SCT020 BKN070 QNH3008INS
BECMG 0911/0912 23010G20KT 9000 SHRA BKN010 OVC070 QNH3004INS
BECMG 0915/0916 30009KT 9999 NSW SCT010 BKN040 QNH3005INS TX19/0820Z TN13/0911Z



MET'MAP, your aeronautical weather chart ! - Copyright ORBIFLY December 2007 - Disclaimer

ORBIFLY MET'MAP TEAM :

Programming & Development : Alexandra Zaïnal
Concept & original design : Baudouin d'Aumeries
Assistance for programming : Marc-Olivier Méhu
Technical & hardware support : Manuel Goepfert

Contact : metmap@orbifly.com




SOURCES & CREDITS :

   NOAA       Earth
Advisory